Time;durP1;ratioP1;P1;durP2;ratioP2;P2;SDS_P1;SDS_P2;PMS_P1;PMS_P2;Temp;Humidity;BMP_temperature;BMP_pressure;BME280_temperature;BME280_humidity;BME280_pressure;Samples;Min_cycle;Max_cycle;Signal;HPM_P1;HPM_P2
2023/05/24 02:55:28;;;;;;;15.80;5.35;;;;;;;;;;6168921;23;20029;-79
2023/05/24 02:57:55;;;;;;;19.80;5.78;;;;;;;;;;6186487;23;20017;-81
2023/05/24 03:00:21;;;;;;;12.10;5.32;;;;;;;;;;6186252;23;20009;-79
2023/05/24 03:02:49;;;;;;;13.85;5.05;;;;;;;;;;6159981;23;20020;-79
2023/05/24 03:05:16;;;;;;;11.05;4.95;;;;;;;;;;6186355;23;20001;-79
2023/05/24 03:07:42;;;;;;;17.55;5.25;;;;;;;;;;6186913;23;19997;-79
2023/05/24 03:10:11;;;;;;;13.82;4.68;;;;;;;;;;6159910;23;20008;-79
2023/05/24 03:12:37;;;;;;;9.43;4.55;;;;;;;;;;6160043;23;20396;-79
2023/05/24 03:15:03;;;;;;;12.63;5.75;;;;;;;;;;6160142;23;20009;-80
2023/05/24 03:17:32;;;;;;;16.08;5.25;;;;;;;;;;6186296;23;20008;-80
2023/05/24 03:19:58;;;;;;;10.73;4.53;;;;;;;;;;6160225;23;20007;-79
2023/05/24 03:22:24;;;;;;;11.90;4.90;;;;;;;;;;6186748;23;20005;-79
2023/05/24 03:24:50;;;;;;;12.63;4.88;;;;;;;;;;6159867;23;20052;-81
2023/05/24 03:27:17;;;;;;;11.00;4.38;;;;;;;;;;6187519;23;20001;-82
2023/05/24 03:29:43;;;;;;;13.60;5.18;;;;;;;;;;6160451;23;19997;-80
2023/05/24 03:32:12;;;;;;;15.40;4.63;;;;;;;;;;6159975;23;20013;-79
2023/05/24 03:34:38;;;;;;;10.48;4.70;;;;;;;;;;6186495;23;20016;-79
2023/05/24 03:37:04;;;;;;;11.10;4.10;;;;;;;;;;6187511;23;20005;-80
2023/05/24 03:39:30;;;;;;;11.65;4.50;;;;;;;;;;6187060;23;20005;-80
2023/05/24 03:41:57;;;;;;;11.77;3.97;;;;;;;;;;6161111;23;20092;-80
2023/05/24 03:44:23;;;;;;;12.63;4.82;;;;;;;;;;6160308;23;20007;-80
2023/05/24 03:46:52;;;;;;;12.05;4.45;;;;;;;;;;6186771;23;20420;-79
2023/05/24 03:49:18;;;;;;;15.73;4.38;;;;;;;;;;6160444;23;20027;-79
2023/05/24 03:51:44;;;;;;;11.43;4.40;;;;;;;;;;6160962;23;20011;-79
2023/05/24 03:54:14;;;;;;;13.80;5.50;;;;;;;;;;6160377;23;20557;-79
2023/05/24 03:56:40;;;;;;;12.88;4.63;;;;;;;;;;6186675;23;20428;-79
2023/05/24 03:59:06;;;;;;;14.55;4.93;;;;;;;;;;6160512;23;20009;-79
2023/05/24 04:01:32;;;;;;;13.98;4.20;;;;;;;;;;6186524;23;20013;-79
2023/05/24 04:04:00;;;;;;;12.60;4.13;;;;;;;;;;6159767;23;20036;-79
2023/05/24 04:06:28;;;;;;;15.70;4.43;;;;;;;;;;6186350;23;20518;-79
2023/05/24 04:08:58;;;;;;;21.48;4.80;;;;;;;;;;6185210;23;20001;-79
2023/05/24 04:11:27;;;;;;;12.00;4.10;;;;;;;;;;6160320;23;20056;-80
2023/05/24 04:13:54;;;;;;;11.65;4.20;;;;;;;;;;6186138;23;20005;-80
2023/05/24 04:16:24;;;;;;;12.73;3.95;;;;;;;;;;6186960;23;20020;-79
2023/05/24 04:18:51;;;;;;;14.25;4.47;;;;;;;;;;6187218;23;20001;-80
2023/05/24 04:21:17;;;;;;;10.70;3.97;;;;;;;;;;6186667;23;20014;-80
2023/05/24 04:23:43;;;;;;;13.45;4.38;;;;;;;;;;6159883;23;20009;-80
2023/05/24 04:26:09;;;;;;;10.98;3.97;;;;;;;;;;6186128;23;20005;-80
2023/05/24 04:28:37;;;;;;;16.17;3.83;;;;;;;;;;6160270;23;20040;-80
2023/05/24 04:31:05;;;;;;;12.30;4.50;;;10.80;99.90;;;;;;6160934;23;20376;-80
2023/05/24 04:33:31;;;;;;;11.48;4.32;;;;;;;;;;6161084;23;20032;-80
2023/05/24 04:36:00;;;;;;;11.07;4.05;;;;;;;;;;6162640;23;20005;-80
2023/05/24 04:38:34;;;;;;;10.75;3.50;;;;;;;;;;6190415;23;20028;-80
2023/05/24 04:41:01;;;;;;;9.25;4.30;;;;;;;;;;6166409;23;20009;-81
2023/05/24 04:43:28;;;;;;;9.50;3.70;;;;;;;;;;6192753;23;20076;-79
2023/05/24 04:45:54;;;;;;;13.38;4.18;;;;;;;;;;6164077;23;20413;-80
2023/05/24 04:48:23;;;;;;;16.63;4.28;;;;;;;;;;6164130;23;20005;-79
2023/05/24 04:50:55;;;;;;;10.30;3.85;;;;;;;;;;6163648;23;20001;-79
2023/05/24 04:53:22;;;;;;;15.63;4.45;;;;;;;;;;6189851;23;20375;-80
2023/05/24 04:55:48;;;;;;;10.32;4.30;;;;;;;;;;6163893;23;20020;-80
2023/05/24 04:58:14;;;;;;;10.25;3.85;;;;;;;;;;6190487;23;20031;-80
2023/05/24 05:00:41;;;;;;;15.25;3.85;;;;;;;;;;6164100;23;20005;-82
2023/05/24 05:03:07;;;;;;;14.98;3.80;;;;;;;;;;6163219;23;20008;-79
2023/05/24 05:05:34;;;;;;;12.80;3.80;;;;;;;;;;6163181;23;20001;-80
2023/05/24 05:08:00;;;;;;;12.35;3.95;;;;;;;;;;6190047;23;20021;-80
2023/05/24 05:10:27;;;;;;;12.35;4.00;;;;;;;;;;6190176;23;20417;-80
2023/05/24 05:12:54;;;;;;;10.80;3.83;;;;;;;;;;6167985;23;20016;-81
2023/05/24 05:15:24;;;;;;;15.02;4.18;;;11.20;99.90;;;;;;6157576;23;20076;-79
2023/05/24 05:17:50;;;;;;;13.10;3.85;;;;;;;;;;6157216;23;20012;-83
2023/05/24 05:20:17;;;;;;;13.40;3.95;;;12.20;99.90;;;;;;6168881;23;20005;-82
2023/05/24 05:22:47;;;;;;;10.07;3.55;;;;;;;;;;6196947;23;20016;-81
2023/05/24 05:25:13;;;;;;;7.72;2.63;;;;;;;;;;6176938;23;20173;-80
2023/05/24 05:27:39;;;;;;;12.50;3.22;;;;;;;;;;6204127;23;20011;-82
2023/05/24 05:30:12;;;;;;;12.02;2.90;;;;;;;;;;6173547;23;20021;-81
2023/05/24 05:33:20;;;;;;;10.45;3.38;;;14.00;99.90;;;;;;6167154;23;20013;-82
2023/05/24 05:35:58;;;;;;;13.65;3.20;;;;;;;;;;6193519;23;20020;-82
2023/05/24 05:39:04;;;;;;;9.48;3.33;;;14.10;99.90;;;;;;6166789;23;20009;-82
2023/05/24 05:42:01;;;;;;;10.85;3.10;;;14.20;99.90;;;;;;6193210;23;20030;-82
2023/05/24 05:44:33;;;;;;;9.50;3.20;;;;;;;;;;6191223;23;20386;-82
2023/05/24 05:47:21;;;;;;;9.50;2.90;;;;;;;;;;6166892;23;20001;-82
2023/05/24 05:49:52;;;;;;;11.02;3.47;;;;;;;;;;6193671;23;20013;-81
2023/05/24 05:52:20;;;;;;;8.55;3.45;;;;;;;;;;6172874;23;20012;-82
2023/05/24 05:54:59;;;;;;;12.45;3.00;;;;;;;;;;6170836;23;20075;-82
2023/05/24 05:57:26;;;;;;;15.70;5.75;;;;;;;;;;6142166;23;20009;-81
2023/05/24 05:59:53;;;;;;;11.13;3.10;;;;;;;;;;6165918;23;20005;-81
2023/05/24 06:02:23;;;;;;;12.52;3.38;;;13.80;99.90;;;;;;6192584;23;20597;-81
2023/05/24 06:05:15;;;;;;;11.27;3.70;;;13.70;99.90;;;;;;6190983;23;20020;-82
2023/05/24 06:08:19;;;;;;;11.30;3.50;;;13.70;99.90;;;;;;6190244;23;20009;-82
2023/05/24 06:10:55;;;;;;;9.98;3.22;;;;;;;;;;6164872;23;20013;-82
2023/05/24 06:14:10;;;;;;;11.25;3.38;;;14.00;99.90;;;;;;6190901;23;20005;-82
2023/05/24 06:17:08;;;;;;;13.60;2.80;;;;;;;;;;6189461;23;20024;-82
2023/05/24 06:20:35;;;;;;;9.30;2.80;;;13.80;99.90;;;;;;6193665;23;20375;-82
2023/05/24 06:23:41;;;;;;;12.35;2.97;;;13.90;99.90;;;;;;6192542;23;20004;-81
2023/05/24 06:44:22;;;;;;;11.88;2.80;;;;;;;;;;6141303;23;20021;-80
2023/05/24 06:46:48;;;;;;;10.85;2.47;;;;;;;;;;6157389;23;19997;-80
2023/05/24 06:49:16;;;;;;;11.05;2.90;;;;;;;;;;6187600;23;20076;-81
2023/05/24 06:51:42;;;;;;;9.57;2.90;;;;;;;;;;6164400;23;20444;-80
2023/05/24 06:54:09;;;;;;;6.50;2.67;;;;;;;;;;6164896;23;20005;-81
2023/05/24 06:56:35;;;;;;;12.05;2.90;;;;;;;;;;6189684;23;20313;-82
2023/05/24 06:59:01;;;;;;;6.85;2.40;;;;;;;;;;6162342;23;20009;-80
2023/05/24 07:01:29;;;;;;;13.65;2.63;;;;;;;;;;6136794;23;20141;-80
2023/05/24 07:03:55;;;;;;;12.80;2.58;;;;;;;;;;6161512;23;20427;-81
2023/05/24 07:06:23;;;;;;;10.13;2.90;;;;;;;;;;6185901;23;20008;-81
2023/05/24 07:08:50;;;;;;;9.52;2.53;;;;;;;;;;6156413;23;20420;-80
2023/05/24 07:11:17;;;;;;;14.70;4.20;;;;;;;;;;6182998;23;20024;-81
2023/05/24 07:13:43;;;;;;;8.38;2.33;;;;;;;;;;6186954;23;20020;-80
2023/05/24 07:16:10;;;;;;;11.95;2.63;;;;;;;;;;6184270;23;20031;-80
2023/05/24 07:18:37;;;;;;;10.38;2.40;;;;;;;;;;6183351;23;20001;-81
2023/05/24 07:21:03;;;;;;;8.48;2.15;;;;;;;;;;6157151;23;20039;-81
2023/05/24 07:23:31;;;;;;;10.32;2.60;;;;;;;;;;6185794;23;20277;-81
2023/05/24 07:25:59;;;;;;;8.10;2.10;;;;;;;;;;6132860;23;20648;-81
2023/05/24 07:28:26;;;;;;;8.65;2.25;;;;;;;;;;6132058;23;20017;-80
2023/05/24 07:30:53;;;;;;;7.57;2.60;;;;;;;;;;6158371;23;20140;-81
2023/05/24 07:33:22;;;;;;;9.60;1.98;;;;;;;;;;6158813;23;20031;-81
2023/05/24 07:35:52;;;;;;;11.57;2.78;;;;;;;;;;6186006;23;20032;-81
2023/05/24 07:38:19;;;;;;;8.07;2.20;;;;;;;;;;6159583;23;20040;-80
2023/05/24 07:40:46;;;;;;;9.15;1.98;;;;;;;;;;6184559;23;20029;-82
2023/05/24 07:43:13;;;;;;;6.45;2.13;;;;;;;;;;6185403;23;20001;-81
2023/05/24 07:45:39;;;;;;;9.63;2.35;;;;;;;;;;6185746;23;20442;-81
2023/05/24 07:48:07;;;;;;;5.35;1.70;;;;;;;;;;6184247;23;20012;-82
2023/05/24 07:50:35;;;;;;;7.60;2.00;;;;;;;;;;6184372;23;20001;-82
2023/05/24 07:53:01;;;;;;;8.20;2.10;;;;;;;;;;6184501;23;20008;-80
2023/05/24 07:55:29;;;;;;;9.50;2.20;;;14.90;92.50;;;;;;6188087;23;20009;-82
2023/05/24 07:57:56;;;;;;;7.20;2.40;;;;;;;;;;6189895;23;20005;-82
2023/05/24 08:00:24;;;;;;;7.38;1.70;;;;;;;;;;6196273;23;20001;-81
2023/05/24 08:02:51;;;;;;;6.50;1.73;;;;;;;;;;6201435;23;20064;-81
2023/05/24 08:05:20;;;;;;;9.27;1.50;;;;;;;;;;6208059;23;20009;-83
2023/05/24 08:07:50;;;;;;;7.95;1.50;;;;;;;;;;6196494;23;20454;-82
2023/05/24 08:10:17;;;;;;;3.78;1.33;;;;;;;;;;6192255;23;20027;-81
2023/05/24 08:12:44;;;;;;;5.57;1.60;;;;;;;;;;6192510;23;20005;-81
2023/05/24 08:15:11;;;;;;;5.13;1.80;;;;;;;;;;6194619;23;20003;-82
2023/05/24 08:17:40;;;;;;;8.85;1.50;;;15.30;87.10;;;;;;6194602;23;20001;-82
2023/05/24 08:20:13;;;;;;;3.92;1.45;;;;;;;;;;6194734;23;20063;-82
2023/05/24 08:22:40;;;;;;;5.85;1.80;;;;;;;;;;6195922;23;20008;-81
2023/05/24 08:25:07;;;;;;;5.30;1.48;;;;;;;;;;6197287;23;19997;-82
2023/05/24 08:27:34;;;;;;;7.50;1.70;;;;;;;;;;6193935;23;20016;-81
2023/05/24 08:30:00;;;;;;;4.00;1.40;;;;;;;;;;6197665;23;20069;-82
2023/05/24 08:32:27;;;;;;;7.82;2.00;;;;;;;;;;6200569;23;20005;-81
2023/05/24 08:34:55;;;;;;;6.10;2.00;;;;;;;;;;6194620;23;20013;-82
2023/05/24 08:37:22;;;;;;;8.07;1.92;;;;;;;;;;6191124;23;20005;-81
2023/05/24 08:39:49;;;;;;;4.88;1.33;;;;;;;;;;6192084;23;20072;-82
2023/05/24 08:42:16;;;;;;;5.25;1.67;;;;;;;;;;6192956;23;20439;-80
2023/05/24 08:44:52;;;;;;;5.15;1.52;;;;;;;;;;6193775;23;20020;-80
2023/05/24 08:47:22;;;;;;;4.88;1.60;;;;;;;;;;6191773;23;20001;-81
2023/05/24 08:49:48;;;;;;;8.00;1.70;;;;;;;;;;6190080;23;20001;-80
2023/05/24 08:52:16;;;;;;;5.72;1.60;;;;;;;;;;6189320;23;20001;-80
2023/05/24 08:54:43;;;;;;;4.65;1.40;;;;;;;;;;6189513;23;20001;-81
2023/05/24 08:57:10;;;;;;;8.48;1.75;;;;;;;;;;6188753;23;20001;-80
2023/05/24 08:59:39;;;;;;;5.22;1.60;;;;;;;;;;6189786;23;20316;-81
2023/05/24 09:02:06;;;;;;;6.43;1.80;;;;;;;;;;6190747;23;20000;-81
2023/05/24 09:04:33;;;;;;;6.60;1.73;;;;;;;;;;6187125;23;20020;-82
2023/05/24 09:07:01;;;;;;;6.47;1.75;;;;;;;;;;6189932;23;20089;-83
2023/05/24 09:09:28;;;;;;;3.78;1.48;;;;;;;;;;6188466;23;20052;-81
2023/05/24 09:11:59;;;;;;;4.10;1.55;;;16.40;79.40;;;;;;6187379;23;20036;-81
2023/05/24 09:14:28;;;;;;;5.15;1.98;;;;;;;;;;6187394;23;20466;-81
2023/05/24 09:16:55;;;;;;;6.57;1.90;;;;;;;;;;6188159;23;20013;-80
2023/05/24 09:19:21;;;;;;;6.53;1.98;;;;;;;;;;6188645;23;20008;-80
2023/05/24 09:21:49;;;;;;;4.95;1.65;;;;;;;;;;6188069;23;20036;-81
2023/05/24 09:24:23;;;;;;;7.57;1.95;;;;;;;;;;6189166;23;20052;-81
2023/05/24 09:26:50;;;;;;;4.32;1.60;;;;;;;;;;6187572;23;20001;-81
2023/05/24 09:29:16;;;;;;;3.45;1.40;;;;;;;;;;6189874;23;20432;-80
2023/05/24 09:31:42;;;;;;;5.75;2.00;;;;;;;;;;6163701;23;20012;-81
2023/05/24 09:34:15;;;;;;;7.38;1.92;;;17.10;78.10;;;;;;6188996;23;20023;-80
2023/05/24 09:36:42;;;;;;;6.88;1.73;;;;;;;;;;6187632;23;20005;-81
2023/05/24 09:39:09;;;;;;;9.63;2.40;;;;;;;;;;6186495;23;20015;-81
2023/05/24 09:41:36;;;;;;;6.03;1.92;;;;;;;;;;6189252;23;20001;-81
2023/05/24 09:44:05;;;;;;;7.40;2.05;;;;;;;;;;6187423;23;20440;-81
2023/05/24 09:46:36;;;;;;;7.00;1.75;;;;;;;;;;6185702;23;20005;-82
2023/05/24 09:49:05;;;;;;;6.30;1.90;;;;;;;;;;6184309;23;20463;-80
2023/05/24 09:51:31;;;;;;;5.72;1.67;;;;;;;;;;6186444;23;20028;-80
2023/05/24 09:54:00;;;;;;;6.00;1.60;;;;;;;;;;6190074;23;20067;-80
2023/05/24 09:56:26;;;;;;;5.35;1.55;;;;;;;;;;6187547;23;20020;-81
2023/05/24 09:58:53;;;;;;;5.82;1.50;;;;;;;;;;6186165;23;20005;-81
2023/05/24 10:01:23;;;;;;;4.00;1.63;;;;;;;;;;6183940;23;20001;-80
2023/05/24 10:03:53;;;;;;;5.35;1.33;;;17.60;74.30;;;;;;6185541;23;20004;-81
2023/05/24 10:06:19;;;;;;;5.93;1.70;;;;;;;;;;6183107;23;20427;-80
2023/05/24 10:08:50;;;;;;;6.28;1.50;;;;;;;;;;6183739;23;20363;-82
2023/05/24 10:11:16;;;;;;;4.57;1.80;;;;;;;;;;6184553;23;20336;-80
2023/05/24 10:13:43;;;;;;;4.07;1.45;;;;;;;;;;6183810;23;20072;-80
2023/05/24 10:16:09;;;;;;;6.22;1.63;;;;;;;;;;6182916;23;20015;-80
2023/05/24 10:18:35;;;;;;;5.72;1.60;;;;;;;;;;6183135;23;20427;-80
2023/05/24 10:21:02;;;;;;;5.45;1.55;;;;;;;;;;6187543;23;20015;-80
2023/05/24 10:23:31;;;;;;;5.28;1.27;;;;;;;;;;6189364;23;20332;-82
2023/05/24 10:26:08;;;;;;;6.47;2.00;;;;;;;;;;6187992;23;20065;-81
2023/05/24 10:28:39;;;;;;;6.13;1.70;;;;;;;;;;6185123;23;20013;-80
2023/05/24 10:31:09;;;;;;;5.20;1.80;;;;;;;;;;6186788;23;20040;-80
2023/05/24 10:33:37;;;;;;;5.47;2.00;;;;;;;;;;6189870;23;20005;-81
2023/05/24 10:36:06;;;;;;;4.65;1.55;;;;;;;;;;6190452;23;20109;-81
2023/05/24 10:38:33;;;;;;;4.20;1.52;;;;;;;;;;6196799;23;20008;-82
2023/05/24 10:40:59;;;;;;;5.00;1.30;;;;;;;;;;6193946;23;20032;-82
2023/05/24 10:43:26;;;;;;;5.75;1.90;;;;;;;;;;6197374;23;20471;-81
2023/05/24 10:45:52;;;;;;;5.18;1.52;;;;;;;;;;6194507;23;20009;-80
2023/05/24 10:48:31;;;;;;;7.32;2.17;;;;;;;;;;6193245;23;20088;-80
2023/05/24 10:51:29;;;;;;;4.85;1.98;;;;;;;;;;6185163;23;19993;-82
2023/05/24 10:57:03;;;;;;;6.68;2.00;;;;;;;;;;6186873;23;20015;-80
2023/05/24 10:59:43;;;;;;;6.57;1.95;;;;;;;;;;6188692;23;20005;-81
2023/05/24 11:02:13;;;;;;;6.07;1.85;;;19.20;69.00;;;;;;6191893;23;20009;-80
2023/05/24 11:04:42;;;;;;;;;;;19.10;68.90;;;;;;6189357;23;20683;-80
2023/05/24 11:07:47;;;;;;;4.35;1.63;;;;;;;;;;6191269;23;19904;-84
2023/05/24 11:10:25;;;;;;;8.32;2.05;;;;;;;;;;6193336;23;20001;-81
2023/05/24 11:12:57;;;;;;;5.50;1.85;;;;;;;;;;6191602;23;20005;-83
2023/05/24 11:15:29;;;;;;;8.63;3.35;;;;;;;;;;6189451;23;20005;-79
2023/05/24 11:18:12;;;;;;;9.18;1.70;;;;;;;;;;6190630;23;20076;-80
2023/05/24 11:20:40;;;;;;;6.05;1.70;;;;;;;;;;6189798;23;20009;-80
2023/05/24 11:23:06;;;;;;;4.18;1.90;;;;;;;;;;6190825;23;20076;-80
2023/05/24 11:25:35;;;;;;;5.97;1.80;;;;;;;;;;6186990;23;20025;-81
2023/05/24 11:28:03;;;;;;;6.25;1.70;;;;;;;;;;6185844;23;20001;-80
2023/05/24 11:30:31;;;;;;;6.00;1.75;;;;;;;;;;6185782;23;20028;-80
2023/05/24 11:32:58;;;;;;;6.90;1.60;;;;;;;;;;6183450;23;20095;-80
2023/05/24 11:35:27;;;;;;;4.82;1.58;;;;;;;;;;6185234;23;20012;-80
2023/05/24 11:37:53;;;;;;;5.32;1.30;;;;;;;;;;6184364;23;20005;-80
2023/05/24 11:40:19;;;;;;;5.15;1.85;;;;;;;;;;6183522;23;20009;-80
2023/05/24 11:42:46;;;;;;;8.75;1.85;;;;;;;;;;6182000;23;20009;-80
2023/05/24 11:45:12;;;;;;;5.78;2.20;;;;;;;;;;6181294;23;20009;-81
2023/05/24 11:47:39;;;;;;;4.30;1.40;;;;;;;;;;6180910;23;20055;-81
2023/05/24 11:50:06;;;;;;;5.65;1.65;;;19.30;67.40;;;;;;6183206;23;20012;-80
2023/05/24 11:52:32;;;;;;;4.85;1.60;;;;;;;;;;6186542;23;20001;-80
2023/05/24 11:54:58;;;;;;;4.53;1.85;;;;;;;;;;6184674;23;20005;-80
2023/05/24 11:57:29;;;;;;;6.68;1.80;;;;;;;;;;6185740;23;20015;-80
2023/05/24 11:59:57;;;;;;;5.30;1.88;;;;;;;;;;6185350;23;20424;-80
2023/05/24 12:02:23;;;;;;;5.35;1.80;;;;;;;;;;6185150;23;20001;-80
2023/05/24 12:04:49;;;;;;;5.22;1.63;;;;;;;;;;6183726;23;20075;-80
2023/05/24 12:07:16;;;;;;;7.68;3.05;;;;;;;;;;6185927;23;20005;-80
2023/05/24 12:09:42;;;;;;;4.97;1.85;;;;;;;;;;6187501;23;20020;-80
2023/05/24 12:12:09;;;;;;;7.13;2.28;;;;;;;;;;6185287;23;20008;-79
2023/05/24 12:14:35;;;;;;;5.03;2.00;;;;;;;;;;6185368;23;20450;-81
2023/05/24 12:17:01;;;;;;;5.05;1.90;;;;;;;;;;6178932;23;20364;-80
2023/05/24 12:19:33;;;;;;;7.50;2.30;;;;;;;;;;6181373;23;20013;-81
2023/05/24 12:21:59;;;;;;;5.80;2.10;;;;;;;;;;6182900;23;20296;-79
2023/05/24 12:24:26;;;;;;;6.10;1.70;;;;;;;;;;6181812;23;20009;-79
2023/05/24 12:26:57;;;;;;;6.32;2.03;;;;;;;;;;6158955;23;20085;-81
2023/05/24 12:29:23;;;;;;;6.25;1.80;;;;;;;;;;6184618;23;20009;-80
2023/05/24 12:31:50;;;;;;;7.47;1.75;;;;;;;;;;6184243;23;19993;-80
2023/05/24 12:34:17;;;;;;;4.88;1.85;;;;;;;;;;6184962;23;19997;-81
2023/05/24 12:36:44;;;;;;;5.57;2.00;;;;;;;;;;6185411;23;20100;-79
2023/05/24 12:39:35;;;;;;;6.88;2.13;;;;;;;;;;6184842;23;20009;-80
2023/05/24 12:42:02;;;;;;;8.23;2.13;;;;;;;;;;6185764;23;20005;-79
2023/05/24 12:44:32;;;;;;;5.45;2.10;;;;;;;;;;6185307;23;20013;-79
2023/05/24 12:46:58;;;;;;;4.13;1.83;;;;;;;;;;6186125;23;20073;-80
2023/05/24 12:49:25;;;;;;;3.80;1.98;;;;;;;;;;6189781;23;20016;-79
2023/05/24 12:51:53;;;;;;;5.13;2.20;;;20.40;66.30;;;;;;6190371;23;20036;-79
2023/05/24 12:54:21;;;;;;;8.20;2.33;;;20.50;66.60;;;;;;6191326;23;20071;-80
2023/05/24 12:56:47;;;;;;;4.93;1.90;;;;;;;;;;6194619;23;20417;-79
2023/05/24 12:59:13;;;;;;;5.45;2.13;;;;;;;;;;6194897;23;20011;-79
2023/05/24 13:01:40;;;;;;;7.10;2.15;;;;;;;;;;6194143;23;20005;-79
2023/05/24 13:04:06;;;;;;;5.53;1.98;;;;;;;;;;6193075;23;20008;-79
2023/05/24 13:06:32;;;;;;;5.63;1.80;;;;;;;;;;6192006;23;20008;-80
2023/05/24 13:08:58;;;;;;;5.43;2.00;;;;;;;;;;6189757;23;20008;-79
2023/05/24 13:11:25;;;;;;;5.75;2.03;;;;;;;;;;6188569;23;20009;-81
2023/05/24 13:13:52;;;;;;;5.20;2.15;;;;;;;;;;6185501;23;20331;-80
2023/05/24 13:16:18;;;;;;;5.68;2.05;;;;;;;;;;6186813;23;20005;-79
2023/05/24 13:18:45;;;;;;;5.32;2.00;;;;;;;;;;6188853;23;20020;-79
2023/05/24 13:21:11;;;;;;;4.07;1.73;;;;;;;;;;6189745;23;20008;-79
2023/05/24 13:23:38;;;;;;;5.30;2.13;;;;;;;;;;6188237;23;20027;-80
2023/05/24 13:26:05;;;;;;;3.58;1.88;;;;;;;;;;6187268;23;20059;-79
2023/05/24 13:28:31;;;;;;;3.92;2.00;;;;;;;;;;6184698;23;19997;-79
2023/05/24 13:30:58;;;;;;;5.43;1.92;;;;;;;;;;6183440;23;20059;-79
2023/05/24 13:33:25;;;;;;;4.35;1.90;;;;;;;;;;6183404;23;20023;-81
2023/05/24 13:35:52;;;;;;;5.57;1.85;;;;;;;;;;6183721;23;20087;-79
2023/05/24 13:38:18;;;;;;;6.22;2.10;;;;;;;;;;6183426;23;20099;-79
2023/05/24 13:40:44;;;;;;;5.28;1.98;;;;;;;;;;6182649;23;20012;-79
2023/05/24 13:43:10;;;;;;;4.65;2.22;;;;;;;;;;6183446;23;20012;-79
2023/05/24 13:45:36;;;;;;;5.70;1.90;;;;;;;;;;6183718;23;20013;-79
2023/05/24 13:48:03;;;;;;;5.03;2.20;;;;;;;;;;6183285;23;20123;-81
2023/05/24 13:50:30;;;;;;;6.13;2.30;;;;;;;;;;6184065;23;20060;-80
2023/05/24 13:52:57;;;;;;;4.55;2.28;;;;;;;;;;6184110;23;20436;-79
2023/05/24 13:55:25;;;;;;;11.95;2.35;;;;;;;;;;6184756;23;20060;-80
2023/05/24 13:57:54;;;;;;;5.78;2.20;;;;;;;;;;6185893;23;20345;-79
2023/05/24 14:00:21;;;;;;;9.02;3.13;;;;;;;;;;6195690;23;20016;-80
2023/05/24 14:02:47;;;;;;;5.82;2.83;;;;;;;;;;6188612;23;20016;-81
2023/05/24 14:05:54;;;;;;;7.72;2.70;;;20.00;68.10;;;;;;6188614;23;20027;-81
2023/05/24 14:08:47;;;;;;;5.72;2.50;;;;;;;;;;6214277;23;20062;-81
2023/05/24 14:11:32;;;;;;;6.63;2.42;;;;;;;;;;6160192;23;20009;-81
2023/05/24 14:23:31;;;;;;;9.35;2.65;;;;;;;;;;6215749;23;20018;-80
2023/05/24 14:26:48;;;;;;;9.32;3.15;;;;;;;;;;6175253;23;20005;-81
2023/05/24 14:36:01;;;;;;;8.45;2.75;;;;;;;;;;6067873;23;20521;-81
2023/05/24 14:39:15;;;;;;;9.48;2.45;;;;;;;;;;6122834;23;20049;-81
2023/05/24 14:48:16;;;;;;;8.30;2.80;;;;;;;;;;6021044;23;20040;-82
2023/05/24 14:50:42;;;;;;;9.90;3.20;;;;;;;;;;6083344;23;20002;-81
2023/05/24 14:53:11;;;;;;;9.98;3.42;;;;;;;;;;6171289;23;20339;-81
2023/05/24 14:55:39;;;;;;;8.45;2.97;;;;;;;;;;6208776;23;20040;-82
2023/05/24 14:58:10;;;;;;;9.52;2.90;;;;;;;;;;6208883;23;20030;-82
2023/05/24 15:00:37;;;;;;;11.60;3.78;;;;;;;;;;6215414;23;20004;-82
2023/05/24 15:03:06;;;;;;;9.80;3.00;;;;;;;;;;6236387;23;20001;-80
2023/05/24 15:05:33;;;;;;;9.45;3.00;;;;;;;;;;6235707;23;20004;-81
2023/05/24 15:08:00;;;;;;;13.23;3.30;;;;;;;;;;6240126;23;19989;-81
2023/05/24 15:10:28;;;;;;;10.65;3.90;;;;;;;;;;6240185;23;20008;-82
2023/05/24 15:16:05;;;;;;;9.52;3.30;;;;;;;;;;6089365;23;20021;-84
2023/05/24 15:18:32;;;;;;;11.13;3.45;;;;;;;;;;6210060;23;20009;-81
2023/05/24 15:21:00;;;;;;;8.35;3.00;;;;;;;;;;6212485;23;20004;-81
2023/05/24 15:23:29;;;;;;;13.07;3.42;;;;;;;;;;6207817;23;20018;-80
2023/05/24 15:26:18;;;;;;;8.18;2.70;;;;;;;;;;6231048;23;20004;-81
2023/05/24 15:28:47;;;;;;;7.70;2.70;;;;;;;;;;6205328;23;20558;-82
2023/05/24 15:31:18;;;;;;;12.20;3.47;;;;;;;;;;6232934;23;20450;-81
2023/05/24 15:33:52;;;;;;;11.05;3.28;;;17.70;78.00;;;;;;6229955;23;20001;-81
2023/05/24 15:36:31;;;;;;;11.70;3.47;;;;;;;;;;6232407;23;20031;-81
2023/05/24 15:39:00;;;;;;;12.38;3.35;;;;;;;;;;6220988;23;20103;-81
2023/05/24 15:41:27;;;;;;;13.88;3.55;;;;;;;;;;6207994;23;20005;-81
2023/05/24 15:44:14;;;;;;;10.00;3.25;;;;;;;;;;6224401;23;20036;-82
2023/05/24 15:49:53;;;;;;;11.60;3.42;;;;;;;;;;6236489;23;20016;-81
2023/05/24 15:52:23;;;;;;;10.02;3.22;;;;;;;;;;6207025;23;20001;-81
2023/05/24 15:55:01;;;;;;;12.65;3.15;;;;;;;;;;6234312;23;20073;-81
2023/05/24 15:57:33;;;;;;;13.13;3.35;;;;;;;;;;6231461;23;20009;-81
2023/05/24 16:00:01;;;;;;;9.98;3.10;;;;;;;;;;6193062;23;20453;-82
2023/05/24 16:02:29;;;;;;;6.65;3.58;;;;;;;;;;6133484;23;20013;-81
2023/05/24 16:04:56;;;;;;;10.98;3.65;;;;;;;;;;6159311;23;20443;-81
2023/05/24 16:07:23;;;;;;;12.70;2.88;;;17.50;79.20;;;;;;6161489;23;20080;-80
2023/05/24 16:09:49;;;;;;;12.70;3.70;;;;;;;;;;6189256;23;20001;-82
2023/05/24 16:12:17;;;;;;;9.50;3.65;;;17.40;79.40;;;;;;6169434;23;20002;-81
2023/05/24 16:14:43;;;;;;;14.23;3.35;;;;;;;;;;6174638;23;20060;-81
2023/05/24 16:17:09;;;;;;;9.90;3.45;;;;;;;;;;6175365;23;20019;-81
2023/05/24 16:19:36;;;;;;;8.98;3.75;;;;;;;;;;6170266;23;20065;-81
2023/05/24 16:22:03;;;;;;;13.48;3.50;;;;;;;;;;6196774;23;20065;-81
2023/05/24 16:24:29;;;;;;;13.95;3.97;;;;;;;;;;6199083;23;20070;-81
2023/05/24 16:26:56;;;;;;;14.27;4.07;;;16.70;79.70;;;;;;6165237;23;20009;-81
2023/05/24 16:29:23;;;;;;;10.07;3.85;;;;;;;;;;6189504;23;20004;-81
2023/05/24 16:31:49;;;;;;;12.50;4.57;;;;;;;;;;6167456;23;20098;-82
2023/05/24 16:34:16;;;;;;;13.48;4.93;;;;;;;;;;6165430;23;20020;-83
2023/05/24 16:36:47;;;;;;;14.00;5.18;;;16.40;79.90;;;;;;6166513;23;20012;-84
2023/05/24 16:39:14;;;;;;;13.77;4.80;;;;;;;;;;6142800;23;20020;-82
2023/05/24 16:41:41;;;;;;;12.48;5.28;;;;;;;;;;6189412;23;20443;-82
2023/05/24 16:44:11;;;;;;;11.43;4.32;;;16.40;80.10;;;;;;6194487;23;20001;-83
2023/05/24 16:46:45;;;;;;;10.95;4.47;;;16.40;80.90;;;;;;6187946;23;20092;-82
2023/05/24 16:49:14;;;;;;;12.20;4.32;;;16.40;80.20;;;;;;6167150;23;20009;-82
2023/05/24 16:51:44;;;;;;;8.05;4.25;;;;;;;;;;6193983;23;20061;-83
2023/05/24 16:54:12;;;;;;;11.45;3.70;;;;;;;;;;6190745;23;20005;-82
2023/05/24 16:56:39;;;;;;;8.40;3.50;;;16.50;79.00;;;;;;6134961;23;20012;-82
2023/05/24 16:59:05;;;;;;;8.88;3.35;;;;;;;;;;6187342;23;20351;-82
2023/05/24 17:01:32;;;;;;;12.32;4.43;;;;;;;;;;6190073;23;20193;-83
2023/05/24 17:03:59;;;;;;;10.15;3.35;;;16.30;79.00;;;;;;6187724;23;20083;-83
2023/05/24 17:06:26;;;;;;;12.27;3.33;;;;;;;;;;6185931;23;20001;-82
2023/05/24 17:08:54;;;;;;;10.10;3.05;;;16.20;79.10;;;;;;6186557;23;20005;-84
2023/05/24 17:11:26;;;;;;;8.32;3.15;;;;;;;;;;6167777;23;20079;-84
2023/05/24 17:13:59;;;;;;;8.40;3.20;;;16.20;80.00;;;;;;6198316;23;20482;-83
2023/05/24 17:16:34;;;;;;;10.52;3.17;;;16.20;80.00;;;;;;6187794;23;20092;-84
2023/05/24 17:19:02;;;;;;;11.07;3.40;;;;;;;;;;6188618;23;20000;-84
2023/05/24 17:21:58;;;;;;;8.45;3.50;;;15.90;80.30;;;;;;6148800;23;20001;-84
2023/05/24 17:24:31;;;;;;;7.63;2.72;;;;;;;;;;6193152;23;20017;-85
2023/05/24 17:27:03;;;;;;;11.52;3.50;;;;;;;;;;6189455;23;20005;-84
2023/05/24 17:29:34;;;;;;;10.45;3.45;;;;;;;;;;6192395;23;20015;-83
2023/05/24 17:32:00;;;;;;;9.77;3.58;;;;;;;;;;6190464;23;20012;-83
2023/05/24 17:34:28;;;;;;;8.23;2.75;;;16.20;80.20;;;;;;6193088;23;20056;-84
2023/05/24 17:36:55;;;;;;;12.07;3.45;;;16.00;80.90;;;;;;6170665;23;20076;-85
2023/05/24 17:39:22;;;;;;;12.27;3.40;;;;;;;;;;6207025;23;19997;-85
2023/05/24 17:41:51;;;;;;;8.25;2.90;;;15.90;82.20;;;;;;6208217;23;20021;-83
2023/05/24 17:44:34;;;;;;;11.77;3.70;;;;;;;;;;6208178;23;20057;-85
2023/05/24 17:47:07;;;;;;;8.77;2.83;;;15.80;83.90;;;;;;6207302;23;20001;-83
2023/05/24 17:49:37;;;;;;;9.45;3.22;;;15.70;84.50;;;;;;6203316;23;20004;-85
2023/05/24 17:52:05;;;;;;;10.98;3.67;;;;;;;;;;6196751;23;20032;-83
2023/05/24 17:54:40;;;;;;;11.65;3.13;;;;;;;;;;6200346;23;19997;-82
2023/05/24 17:57:30;;;;;;;15.60;3.50;;;;;;;;;;6202881;23;20028;-82
2023/05/24 18:00:09;;;;;;;14.43;4.03;;;;;;;;;;6205794;23;20040;-86
2023/05/24 18:02:45;;;;;;;;;;;;;;;;;;;;;
2023/05/24 18:05:22;;;;;;;10.45;3.47;;;;;;;;;;6202080;23;20016;-85
2023/05/24 18:07:51;;;;;;;13.07;3.85;;;;;;;;;;6188528;23;20017;-82
2023/05/24 18:10:18;;;;;;;13.68;4.20;;;;;;;;;;6179985;23;20012;-83
2023/05/24 18:12:48;;;;;;;9.23;3.58;;;;;;;;;;6181943;23;20367;-83
2023/05/24 18:15:14;;;;;;;10.63;3.60;;;;;;;;;;6188414;23;20033;-83
2023/05/24 18:17:41;;;;;;;13.18;4.03;;;;;;;;;;6187483;23;20005;-83
2023/05/24 18:20:08;;;;;;;10.20;3.13;;;;;;;;;;6186052;23;20039;-84
2023/05/24 18:22:36;;;;;;;13.80;3.60;;;;;;;;;;6187222;23;20005;-84
2023/05/24 18:25:03;;;;;;;8.38;3.28;;;;;;;;;;6185013;23;20409;-86